createdAt,value
2022-12-14T00:01:45.135Z,53.60
2022-12-14T00:04:17.596Z,53.60
2022-12-14T00:06:46.163Z,53.60
2022-12-14T00:09:14.415Z,53.60
2022-12-14T00:11:42.648Z,53.60
2022-12-14T00:14:12.201Z,53.60
2022-12-14T00:16:40.443Z,53.50
2022-12-14T00:19:08.605Z,53.40
2022-12-14T00:21:37.198Z,53.40
2022-12-14T00:24:05.723Z,53.40
2022-12-14T00:26:34.228Z,53.50
2022-12-14T00:29:03.301Z,53.40
2022-12-14T00:31:33.143Z,53.40
2022-12-14T00:34:02.149Z,53.40
2022-12-14T00:36:31.382Z,54.00
2022-12-14T00:39:00.115Z,53.40
2022-12-14T00:41:28.411Z,53.40
2022-12-14T00:43:56.727Z,53.40
2022-12-14T00:46:25.011Z,53.30
2022-12-14T00:48:54.586Z,53.90
2022-12-14T00:51:22.844Z,53.30
2022-12-14T00:53:51.034Z,53.30
2022-12-14T00:56:19.201Z,53.30
2022-12-14T00:58:52.674Z,53.30
2022-12-14T01:01:21.606Z,53.30
2022-12-14T01:03:50.957Z,53.30
2022-12-14T01:06:24.022Z,53.30
2022-12-14T01:08:52.260Z,53.20
2022-12-14T01:11:20.455Z,53.30
2022-12-14T01:13:49.869Z,53.30
2022-12-14T01:16:18.851Z,53.30
2022-12-14T01:18:47.167Z,53.20
2022-12-14T01:21:18.307Z,53.20
2022-12-14T01:23:48.920Z,53.20
2022-12-14T01:26:18.423Z,53.10
2022-12-14T01:28:47.401Z,53.10
2022-12-14T01:31:17.824Z,53.30
2022-12-14T01:33:46.657Z,53.20
2022-12-14T01:36:17.514Z,53.10
2022-12-14T01:38:47.720Z,53.10
2022-12-14T01:41:24.348Z,53.10
2022-12-14T01:43:54.244Z,53.00
2022-12-14T01:46:29.234Z,53.10
2022-12-14T01:49:01.575Z,53.10
2022-12-14T01:51:32.014Z,53.20
2022-12-14T01:54:05.200Z,53.20
2022-12-14T01:56:36.081Z,53.20
2022-12-14T01:59:08.999Z,53.30
2022-12-14T02:01:37.856Z,53.80
2022-12-14T02:04:08.084Z,53.20
2022-12-14T02:06:39.258Z,53.10
2022-12-14T02:09:11.791Z,53.10
2022-12-14T02:11:44.571Z,53.10
2022-12-14T02:14:12.788Z,53.10
2022-12-14T02:16:42.134Z,53.10
2022-12-14T02:19:10.392Z,53.20
2022-12-14T02:22:00.150Z,53.10
2022-12-14T02:25:02.035Z,53.10
2022-12-14T02:27:50.009Z,53.10
2022-12-14T02:30:20.765Z,53.20
2022-12-14T02:33:12.206Z,53.10
2022-12-14T02:35:47.237Z,53.10
2022-12-14T02:38:28.132Z,53.20
2022-12-14T02:41:06.621Z,53.20
2022-12-14T02:43:45.452Z,53.20
2022-12-14T02:46:22.571Z,53.30
2022-12-14T02:48:58.217Z,53.40
2022-12-14T02:51:37.140Z,53.40
2022-12-14T02:54:10.718Z,53.30
2022-12-14T02:56:46.141Z,53.40
2022-12-14T02:59:16.508Z,53.40
2022-12-14T03:01:48.714Z,53.40
2022-12-14T03:04:17.764Z,53.50
2022-12-14T03:06:54.686Z,53.40
2022-12-14T03:09:22.883Z,53.40
2022-12-14T03:11:56.052Z,53.40
2022-12-14T03:14:28.439Z,53.40
2022-12-14T03:17:05.106Z,53.40
2022-12-14T03:19:38.386Z,53.40
2022-12-14T03:22:11.680Z,53.40
2022-12-14T03:24:49.941Z,53.40
2022-12-14T03:27:21.361Z,53.40
2022-12-14T03:29:53.806Z,53.80
2022-12-14T03:32:25.839Z,53.30
2022-12-14T03:34:59.782Z,53.30
2022-12-14T03:37:35.484Z,53.30
2022-12-14T03:40:04.434Z,53.30
2022-12-14T03:42:38.751Z,53.30
2022-12-14T03:45:17.124Z,53.20
2022-12-14T03:47:58.324Z,53.20
2022-12-14T03:50:33.036Z,53.20
2022-12-14T03:53:07.656Z,53.20
2022-12-14T03:55:42.357Z,53.20
2022-12-14T03:58:27.691Z,53.10
2022-12-14T04:01:01.997Z,53.10
2022-12-14T04:03:43.457Z,53.10
2022-12-14T04:06:21.748Z,53.10
2022-12-14T04:08:54.702Z,53.10
2022-12-14T04:11:42.297Z,53.10
2022-12-14T04:14:32.873Z,53.10
2022-12-14T04:17:22.172Z,53.00
2022-12-14T04:19:57.386Z,53.00
2022-12-14T04:22:29.051Z,53.00
2022-12-14T04:25:19.395Z,53.00
2022-12-14T04:27:52.073Z,53.10
2022-12-14T04:30:19.673Z,53.00
2022-12-14T04:32:51.788Z,53.10
2022-12-14T04:35:26.997Z,53.00
2022-12-14T04:38:00.414Z,53.00
2022-12-14T04:40:34.414Z,53.00
2022-12-14T04:43:07.476Z,53.00
2022-12-14T04:45:41.284Z,53.00
2022-12-14T04:48:19.000Z,53.10
2022-12-14T04:50:54.199Z,53.10
2022-12-14T04:53:26.348Z,53.00
2022-12-14T04:56:01.936Z,52.90
2022-12-14T04:58:31.623Z,52.90
2022-12-14T05:01:14.253Z,52.90
2022-12-14T05:03:51.418Z,52.90
2022-12-14T05:06:25.828Z,53.00
2022-12-14T05:09:15.588Z,53.00
2022-12-14T05:11:55.675Z,53.10
2022-12-14T05:14:33.260Z,53.00
2022-12-14T05:17:08.389Z,53.10
2022-12-14T05:19:38.248Z,53.00
2022-12-14T05:22:09.545Z,53.00
2022-12-14T05:24:37.946Z,53.00
2022-12-14T05:27:06.350Z,53.00
2022-12-14T05:29:34.560Z,53.00
2022-12-14T05:32:03.341Z,53.00
2022-12-14T05:34:31.683Z,53.00
2022-12-14T05:36:59.871Z,53.00
2022-12-14T05:39:29.472Z,52.90
2022-12-14T05:41:57.696Z,52.90
2022-12-14T05:44:25.840Z,53.00
2022-12-14T05:46:54.022Z,53.00
2022-12-14T05:49:23.292Z,53.00
2022-12-14T05:51:51.486Z,52.90
2022-12-14T05:54:19.683Z,52.90
2022-12-14T05:56:49.160Z,52.90
2022-12-14T05:59:17.826Z,52.90
2022-12-14T06:01:49.081Z,52.90
2022-12-14T06:04:19.036Z,52.90
2022-12-14T06:06:47.831Z,53.00
2022-12-14T06:09:17.422Z,52.90
2022-12-14T06:11:47.305Z,52.90
2022-12-14T06:14:18.152Z,52.80
2022-12-14T06:16:47.656Z,52.80
2022-12-14T06:19:16.741Z,52.80
2022-12-14T06:21:45.398Z,53.30
2022-12-14T06:24:14.492Z,52.80
2022-12-14T06:26:43.226Z,52.80
2022-12-14T06:29:16.738Z,52.80
2022-12-14T06:31:49.475Z,52.70
2022-12-14T06:34:21.168Z,52.70
2022-12-14T06:36:51.756Z,52.70
2022-12-14T06:39:20.007Z,52.70
2022-12-14T06:41:50.875Z,53.30
2022-12-14T06:44:19.200Z,52.80
2022-12-14T06:46:48.790Z,52.80
2022-12-14T06:49:17.191Z,52.70
2022-12-14T06:51:45.645Z,52.60
2022-12-14T06:54:15.394Z,52.70
2022-12-14T06:56:44.642Z,52.70
2022-12-14T06:59:13.458Z,52.70
2022-12-14T07:01:42.195Z,52.70
2022-12-14T07:04:12.186Z,52.50
2022-12-14T07:06:41.680Z,52.50
2022-12-14T07:09:14.335Z,52.50
2022-12-14T07:11:43.470Z,52.50
2022-12-14T07:14:15.845Z,52.50
2022-12-14T07:16:48.262Z,52.50
2022-12-14T07:19:18.895Z,52.50
2022-12-14T07:21:47.080Z,52.50
2022-12-14T07:24:15.908Z,52.50
2022-12-14T07:26:44.132Z,52.40
2022-12-14T07:29:14.597Z,52.40
2022-12-14T07:31:42.827Z,52.40
2022-12-14T07:34:13.854Z,52.40
2022-12-14T07:36:44.060Z,52.30
2022-12-14T07:39:14.294Z,52.30
2022-12-14T07:41:42.757Z,52.30
2022-12-14T07:44:11.587Z,52.30
2022-12-14T07:46:41.197Z,52.30
2022-12-14T07:49:12.960Z,52.30
2022-12-14T07:51:44.184Z,52.30
2022-12-14T07:54:13.160Z,52.30
2022-12-14T07:56:43.830Z,52.30
2022-12-14T07:59:15.517Z,52.20
2022-12-14T08:01:44.662Z,52.30
2022-12-14T08:04:16.887Z,52.20
2022-12-14T08:06:47.773Z,52.20
2022-12-14T08:09:16.727Z,52.30
2022-12-14T08:11:44.948Z,52.30
2022-12-14T08:14:17.065Z,52.30
2022-12-14T08:16:46.145Z,52.30
2022-12-14T08:19:14.958Z,52.30
2022-12-14T08:21:45.342Z,52.30
2022-12-14T08:24:16.713Z,52.30
2022-12-14T08:26:49.027Z,52.40
2022-12-14T08:29:18.793Z,52.40
2022-12-14T08:31:47.271Z,52.40
2022-12-14T08:34:20.717Z,52.30
2022-12-14T08:36:49.295Z,52.30
2022-12-14T08:39:19.004Z,52.30
2022-12-14T08:41:47.352Z,52.30
2022-12-14T08:44:17.037Z,52.30
2022-12-14T08:46:45.329Z,52.30
2022-12-14T08:49:13.744Z,52.90
2022-12-14T08:51:42.032Z,52.20
2022-12-14T08:54:10.866Z,52.20
2022-12-14T08:56:40.476Z,52.30
2022-12-14T08:59:08.849Z,52.20
2022-12-14T09:01:37.248Z,52.20
2022-12-14T09:04:07.723Z,52.20
2022-12-14T09:06:38.605Z,52.30
2022-12-14T09:09:15.217Z,52.20
2022-12-14T09:11:46.060Z,52.20
2022-12-14T09:14:14.401Z,52.20
2022-12-14T09:16:42.776Z,52.20
2022-12-14T09:19:11.152Z,52.20
2022-12-14T09:21:39.787Z,52.20
2022-12-14T09:24:08.214Z,52.20
2022-12-14T09:26:36.522Z,52.20
2022-12-14T09:29:06.181Z,52.20
2022-12-14T09:31:34.618Z,52.20
2022-12-14T09:34:03.873Z,52.20
2022-12-14T09:36:32.166Z,52.60
2022-12-14T09:39:00.593Z,52.20
2022-12-14T09:41:50.699Z,52.30
2022-12-14T09:44:32.607Z,52.30
2022-12-14T09:47:07.114Z,52.20
2022-12-14T09:49:44.185Z,52.40
2022-12-14T09:52:16.795Z,52.40
2022-12-14T09:54:49.835Z,52.50
2022-12-14T09:57:26.294Z,52.60
2022-12-14T09:59:56.166Z,52.70
2022-12-14T10:02:35.612Z,52.70
2022-12-14T10:05:37.709Z,52.90
2022-12-14T10:08:14.611Z,53.10
2022-12-14T10:10:54.245Z,53.10
2022-12-14T10:13:34.309Z,53.10
2022-12-14T10:16:16.063Z,53.30
2022-12-14T10:19:13.427Z,53.40
2022-12-14T10:21:49.474Z,53.40
2022-12-14T10:24:22.737Z,53.50
2022-12-14T10:26:53.356Z,53.50
2022-12-14T10:29:33.159Z,53.70
2022-12-14T10:32:14.316Z,53.80
2022-12-14T10:34:43.751Z,54.00
2022-12-14T10:37:27.015Z,54.10
2022-12-14T10:40:12.479Z,54.30
2022-12-14T10:42:49.437Z,55.00
2022-12-14T10:45:45.439Z,54.60
2022-12-14T10:48:35.256Z,54.80
2022-12-14T10:51:08.823Z,55.00
2022-12-14T10:53:41.478Z,55.00
2022-12-14T10:56:15.617Z,55.20
2022-12-14T10:58:45.147Z,55.30
2022-12-14T11:01:15.751Z,55.50
2022-12-14T11:03:50.428Z,55.70
2022-12-14T11:06:20.600Z,56.50
2022-12-14T11:08:50.188Z,55.90
2022-12-14T11:11:20.024Z,56.70
2022-12-14T11:13:52.937Z,56.20
2022-12-14T11:16:36.662Z,56.40
2022-12-14T11:19:17.729Z,56.60
2022-12-14T11:21:49.857Z,56.70
2022-12-14T11:24:29.341Z,56.80
2022-12-14T11:27:03.362Z,56.90
2022-12-14T11:29:33.937Z,56.90
2022-12-14T11:32:02.710Z,57.10
2022-12-14T11:34:37.715Z,57.10
2022-12-14T11:37:14.811Z,57.30
2022-12-14T11:39:43.391Z,57.50
2022-12-14T11:42:18.856Z,57.50
2022-12-14T11:44:49.328Z,57.70
2022-12-14T11:47:19.350Z,57.80
2022-12-14T11:49:50.839Z,57.80
2022-12-14T11:52:21.124Z,58.10
2022-12-14T11:55:05.601Z,58.20
2022-12-14T11:57:36.572Z,58.30
2022-12-14T12:00:21.963Z,58.30
2022-12-14T12:02:57.948Z,58.40
2022-12-14T12:05:28.819Z,58.50
2022-12-14T12:07:59.322Z,58.50
2022-12-14T12:10:34.870Z,59.10
2022-12-14T12:13:06.267Z,58.50
2022-12-14T12:15:39.402Z,58.70
2022-12-14T12:18:17.276Z,58.80
2022-12-14T12:20:53.722Z,59.00
2022-12-14T12:23:27.162Z,59.00
2022-12-14T12:25:57.506Z,59.20
2022-12-14T12:28:29.320Z,59.20
2022-12-14T12:31:06.166Z,59.30
2022-12-14T12:33:44.530Z,59.40
2022-12-14T12:36:23.449Z,59.50
2022-12-14T12:39:05.297Z,59.60
2022-12-14T12:41:42.259Z,59.70
2022-12-14T12:44:23.114Z,59.70
2022-12-14T12:47:25.427Z,59.70
2022-12-14T12:49:59.717Z,59.70
2022-12-14T12:52:33.557Z,59.80
2022-12-14T12:55:04.465Z,59.70
2022-12-14T12:57:46.051Z,59.80
2022-12-14T13:00:18.948Z,60.00
2022-12-14T13:02:51.344Z,60.00
2022-12-14T13:05:45.664Z,60.20
2022-12-14T13:08:20.973Z,60.20
2022-12-14T13:13:46.594Z,60.40
2022-12-14T13:16:26.194Z,60.40
2022-12-14T13:19:19.164Z,60.60
2022-12-14T13:21:52.416Z,60.60
2022-12-14T13:24:23.249Z,60.50
2022-12-14T13:27:28.117Z,60.40
2022-12-14T13:30:21.844Z,60.50
2022-12-14T13:33:19.827Z,60.50
2022-12-14T13:36:10.979Z,60.40
2022-12-14T13:39:01.801Z,60.40
2022-12-14T13:41:37.686Z,60.40
2022-12-14T13:44:28.546Z,61.00
2022-12-14T13:47:05.333Z,60.20
2022-12-14T13:49:36.154Z,60.20
2022-12-14T13:52:04.684Z,60.20
2022-12-14T13:54:37.012Z,60.30
2022-12-14T13:57:09.128Z,60.20
2022-12-14T13:59:41.218Z,60.10
2022-12-14T14:02:38.988Z,60.10
2022-12-14T14:05:46.750Z,60.30
2022-12-14T14:08:39.305Z,60.30
2022-12-14T14:11:46.344Z,60.20
2022-12-14T14:14:26.322Z,60.00
2022-12-14T14:16:58.406Z,60.00
2022-12-14T14:19:28.662Z,60.00
2022-12-14T14:22:26.260Z,59.90
2022-12-14T14:25:00.335Z,60.00
2022-12-14T14:27:35.393Z,59.90
2022-12-14T14:30:21.686Z,59.90
2022-12-14T14:32:53.776Z,59.80
2022-12-14T14:35:26.791Z,59.80
2022-12-14T14:37:59.164Z,59.80
2022-12-14T14:40:51.499Z,59.80
2022-12-14T14:43:28.328Z,59.80
2022-12-14T14:46:01.708Z,59.70
2022-12-14T14:48:35.013Z,59.80
2022-12-14T14:51:16.113Z,59.80
2022-12-14T14:53:45.060Z,59.80
2022-12-14T14:56:35.423Z,59.90
2022-12-14T14:59:29.840Z,59.90
2022-12-14T15:02:01.515Z,60.00
2022-12-14T15:04:38.548Z,60.00
2022-12-14T15:07:08.873Z,60.00
2022-12-14T15:09:44.067Z,59.90
2022-12-14T15:12:25.731Z,60.00
2022-12-14T15:14:57.314Z,60.10
2022-12-14T15:17:27.565Z,60.10
2022-12-14T15:19:57.847Z,60.10
2022-12-14T15:22:29.179Z,60.80
2022-12-14T15:24:59.840Z,60.20
2022-12-14T15:27:30.969Z,60.30
2022-12-14T15:30:04.772Z,60.30
2022-12-14T15:32:34.762Z,60.50
2022-12-14T15:35:06.073Z,60.50
2022-12-14T15:37:42.574Z,60.60
2022-12-14T15:40:15.164Z,60.80
2022-12-14T15:42:47.905Z,60.80
2022-12-14T15:45:19.592Z,60.90
2022-12-14T15:47:49.507Z,60.90
2022-12-14T15:50:23.826Z,61.10
2022-12-14T15:52:53.773Z,61.20
2022-12-14T15:55:32.102Z,61.20
2022-12-14T15:58:07.464Z,61.20
2022-12-14T16:00:41.106Z,61.40
2022-12-14T16:03:18.396Z,61.40
2022-12-14T16:05:47.277Z,61.50
2022-12-14T16:08:16.412Z,61.60
2022-12-14T16:10:46.194Z,61.60
2022-12-14T16:13:21.581Z,61.70
2022-12-14T16:15:50.685Z,61.60
2022-12-14T16:18:21.520Z,61.70
2022-12-14T16:20:57.823Z,61.70
2022-12-14T16:23:30.338Z,61.80
2022-12-14T16:26:01.200Z,61.80
2022-12-14T16:28:32.165Z,61.90
2022-12-14T16:31:04.123Z,62.00
2022-12-14T16:33:35.378Z,62.10
2022-12-14T16:36:06.584Z,62.80
2022-12-14T16:38:54.457Z,62.10
2022-12-14T16:41:35.900Z,62.20
2022-12-14T16:44:07.669Z,62.20
2022-12-14T16:46:35.932Z,62.10
2022-12-14T16:49:32.509Z,62.10
2022-12-14T16:52:07.667Z,62.30
2022-12-14T16:54:38.637Z,62.20
2022-12-14T16:57:09.185Z,62.20
2022-12-14T16:59:43.051Z,62.30
2022-12-14T17:02:30.740Z,62.40
2022-12-14T17:05:03.452Z,62.50
2022-12-14T17:07:34.091Z,62.60
2022-12-14T17:10:02.777Z,62.70
2022-12-14T17:12:31.650Z,62.70
2022-12-14T17:15:01.232Z,62.70
2022-12-14T17:17:34.702Z,62.80
2022-12-14T17:20:13.458Z,62.80
2022-12-14T17:22:42.580Z,62.80
2022-12-14T17:25:13.315Z,62.80
2022-12-14T17:30:38.387Z,63.00
2022-12-14T17:33:06.582Z,63.10
2022-12-14T17:35:36.559Z,63.20
2022-12-14T17:38:07.219Z,63.20
2022-12-14T17:40:36.629Z,63.10
2022-12-14T17:43:04.976Z,63.20
2022-12-14T17:45:33.302Z,63.30
2022-12-14T17:48:01.814Z,63.40
2022-12-14T17:50:31.087Z,63.40
2022-12-14T17:53:00.852Z,63.40
2022-12-14T17:55:30.308Z,63.30
2022-12-14T17:57:58.876Z,63.20
2022-12-14T18:00:47.016Z,63.10
2022-12-14T18:03:16.893Z,63.80
2022-12-14T18:05:49.205Z,63.10
2022-12-14T18:08:19.466Z,63.20
2022-12-14T18:10:49.648Z,63.40
2022-12-14T18:13:18.245Z,63.40
2022-12-14T18:15:49.619Z,63.60
2022-12-14T18:18:19.005Z,63.40
2022-12-14T18:20:51.235Z,63.40
2022-12-14T18:23:21.575Z,63.50
2022-12-14T18:25:52.520Z,63.50
2022-12-14T18:28:21.713Z,63.50
2022-12-14T18:30:53.244Z,63.50
2022-12-14T18:33:23.965Z,63.60
2022-12-14T18:35:53.779Z,63.50
2022-12-14T18:38:23.882Z,63.50
2022-12-14T18:40:54.657Z,63.50
2022-12-14T18:43:24.811Z,63.40
2022-12-14T18:45:53.976Z,63.40
2022-12-14T18:48:22.559Z,63.60
2022-12-14T18:50:51.850Z,63.60
2022-12-14T18:53:23.873Z,63.70
2022-12-14T18:55:52.614Z,63.80
2022-12-14T18:58:22.963Z,63.90
2022-12-14T19:00:52.907Z,63.90
2022-12-14T19:03:21.990Z,64.00
2022-12-14T19:05:50.709Z,64.00
2022-12-14T19:08:19.425Z,64.00
2022-12-14T19:10:50.109Z,64.00
2022-12-14T19:13:25.451Z,64.00
2022-12-14T19:15:54.672Z,64.00
2022-12-14T19:18:23.035Z,63.90
2022-12-14T19:20:51.253Z,63.90
2022-12-14T19:23:21.025Z,63.70
2022-12-14T19:25:58.954Z,63.70
2022-12-14T19:28:38.417Z,63.80
2022-12-14T19:31:12.678Z,64.20
2022-12-14T19:33:41.048Z,63.90
2022-12-14T19:36:10.396Z,63.90
2022-12-14T19:38:38.913Z,63.80
2022-12-14T19:41:11.522Z,63.90
2022-12-14T19:43:40.021Z,63.90
2022-12-14T19:46:08.734Z,64.00
2022-12-14T19:48:37.752Z,63.80
2022-12-14T19:51:06.550Z,63.60
2022-12-14T19:53:36.025Z,63.60
2022-12-14T19:56:05.904Z,63.60
2022-12-14T19:58:35.888Z,63.70
2022-12-14T20:01:08.960Z,63.70
2022-12-14T20:03:38.264Z,63.60
2022-12-14T20:06:07.686Z,63.60
2022-12-14T20:08:37.319Z,63.60
2022-12-14T20:11:06.745Z,63.60
2022-12-14T20:13:36.742Z,63.70
2022-12-14T20:16:05.396Z,63.80
2022-12-14T20:18:33.696Z,63.80
2022-12-14T20:21:03.767Z,63.80
2022-12-14T20:23:35.072Z,63.80
2022-12-14T20:26:04.198Z,63.90
2022-12-14T20:28:33.194Z,63.90
2022-12-14T20:31:06.457Z,64.00
2022-12-14T20:33:35.283Z,63.80
2022-12-14T20:36:04.199Z,63.60
2022-12-14T20:38:32.660Z,63.60
2022-12-14T20:41:06.060Z,63.50
2022-12-14T20:43:35.814Z,63.50
2022-12-14T20:46:06.821Z,63.50
2022-12-14T20:48:35.106Z,63.60
2022-12-14T20:51:04.637Z,63.70
2022-12-14T20:53:33.357Z,63.80
2022-12-14T20:56:04.792Z,63.80
2022-12-14T20:58:34.080Z,63.80
2022-12-14T21:01:09.027Z,63.80
2022-12-14T21:03:37.645Z,63.80
2022-12-14T21:06:06.466Z,63.80
2022-12-14T21:08:55.706Z,63.80
2022-12-14T21:11:41.924Z,63.80
2022-12-14T21:14:10.726Z,63.70
2022-12-14T21:16:41.895Z,63.70
2022-12-14T21:19:11.921Z,63.60
2022-12-14T21:21:40.535Z,63.50
2022-12-14T21:24:10.875Z,63.40
2022-12-14T21:26:39.954Z,64.00
2022-12-14T21:29:10.717Z,63.40
2022-12-14T21:31:43.038Z,63.50
2022-12-14T21:34:13.885Z,63.50
2022-12-14T21:36:42.389Z,63.40
2022-12-14T21:39:11.445Z,63.40
2022-12-14T21:41:57.249Z,63.50
2022-12-14T21:44:25.685Z,63.40
2022-12-14T21:46:55.420Z,63.40
2022-12-14T21:49:24.046Z,63.50
2022-12-14T21:51:55.406Z,63.40
2022-12-14T21:54:24.885Z,63.40
2022-12-14T21:57:10.627Z,63.40
2022-12-14T21:59:40.635Z,63.50
2022-12-14T22:02:14.966Z,63.50
2022-12-14T22:04:46.479Z,63.40
2022-12-14T22:07:16.406Z,63.50
2022-12-14T22:09:44.713Z,63.50
2022-12-14T22:12:18.959Z,63.60
2022-12-14T22:14:47.365Z,63.50
2022-12-14T22:17:17.244Z,63.60
2022-12-14T22:19:45.448Z,63.50
2022-12-14T22:22:15.870Z,63.50
2022-12-14T22:24:44.563Z,63.40
2022-12-14T22:27:13.845Z,63.30
2022-12-14T22:29:42.481Z,63.30
2022-12-14T22:32:12.917Z,63.40
2022-12-14T22:34:42.564Z,63.40
2022-12-14T22:37:10.832Z,63.20
2022-12-14T22:39:39.131Z,63.20
2022-12-14T22:42:07.292Z,63.10
2022-12-14T22:44:35.787Z,63.10
2022-12-14T22:47:38.178Z,63.20
2022-12-14T22:50:53.927Z,63.20
2022-12-14T22:53:56.170Z,63.20
2022-12-14T22:56:58.558Z,63.00
2022-12-14T22:59:30.745Z,63.00
2022-12-14T23:02:00.656Z,62.80
2022-12-14T23:04:29.177Z,62.90
2022-12-14T23:06:58.784Z,63.00
2022-12-14T23:09:44.585Z,63.00
2022-12-14T23:12:30.523Z,63.10
2022-12-14T23:15:16.000Z,63.60
2022-12-14T23:18:01.644Z,63.00
2022-12-14T23:20:47.609Z,63.00
2022-12-14T23:23:35.435Z,63.00
2022-12-14T23:26:22.248Z,63.10
2022-12-14T23:29:07.900Z,63.00
2022-12-14T23:31:53.753Z,62.90
2022-12-14T23:34:39.245Z,62.90
2022-12-14T23:37:25.236Z,62.80
2022-12-14T23:40:12.209Z,62.70
2022-12-14T23:42:57.770Z,62.80
2022-12-14T23:45:43.927Z,62.90
2022-12-14T23:48:29.439Z,62.90
2022-12-14T23:51:15.524Z,62.90
2022-12-14T23:54:01.076Z,62.70
2022-12-14T23:56:48.132Z,62.70
2022-12-14T23:59:33.715Z,62.70
